PWSweather.com
Personal Weather Stations
Station Observations
ISYDDANM23
Felsted, AabenraaDK 6200

FelstedAabenraaDK 6200

Lat: 54.977066, Lon: 9.507192

Elevation: 135

Station Type: Davis Vantage Pro 2 Plus 24H

http://www.valkaer.dk

High Low Average
Temperature 49.6°F9.8°C 34.9°F1.6°C 42.6°F5.9°C
Dew Point 40.0°F4.4°C 31.3°F-0.4°C 34.7°F1.5°C
Winds 19.6 mph 31.5 kmh Calm Calm 7.0 mph WSW11.3 kmh WSW
Wind Gusts 25.3 mph40.7 kmh -- 9.0 mph14.5 kmh
Humidity 89% 57% 74%
Pressure 29.99 in1015.6 mb 29.90 in1012.5 mb -
Precipitation 0.02 in0.5 mm - -
Hour Temp Dew Point Humidity Winds Wind Gusts Pressure Precip Precip Rate Daily Precip Total
12:00 AM 37.1°F2.8°C 32.7°F0.4°C 84% 3.5 mph WSW5.6 kmh WSW 5.8 mph9.3 kmh 29.96 in1014.6 mb - 0.00 in0.0 mm 0.00 in0.0 mm
12:10 AM 37.1°F2.8°C 32.4°F0.2°C 83% 4.6 mph WSW7.4 kmh WSW 5.8 mph9.3 kmh 29.96 in1014.6 mb - 0.00 in0.0 mm 0.00 in0.0 mm
12:15 AM 36.9°F2.7°C 32.3°F0.2°C 83% 4.6 mph WSW7.4 kmh WSW 8.1 mph13.0 kmh 29.96 in1014.6 mb - 0.00 in0.0 mm 0.00 in0.0 mm
12:20 AM 37.0°F2.8°C 32.3°F0.2°C 83% 4.6 mph WSW7.4 kmh WSW 6.9 mph11.1 kmh 29.96 in1014.6 mb - 0.00 in0.0 mm 0.00 in0.0 mm
12:25 AM 36.9°F2.7°C 32.2°F0.1°C 83% 4.6 mph WSW7.4 kmh WSW 5.8 mph9.3 kmh 29.96 in1014.6 mb - 0.00 in0.0 mm 0.00 in0.0 mm
12:30 AM 37.2°F2.9°C 32.5°F0.3°C 83% 4.6 mph W7.4 kmh W 5.8 mph9.3 kmh 29.97 in1014.9 mb - 0.00 in0.0 mm 0.00 in0.0 mm
12:35 AM 37.5°F3.1°C 32.8°F0.4°C 83% 5.8 mph WSW9.3 kmh WSW 8.1 mph13.0 kmh 29.96 in1014.6 mb - 0.00 in0.0 mm 0.00 in0.0 mm
12:40 AM 37.8°F3.2°C 32.8°F0.4°C 82% 5.8 mph WSW9.3 kmh WSW 8.1 mph13.0 kmh 29.96 in1014.6 mb - 0.00 in0.0 mm 0.00 in0.0 mm
12:45 AM 37.6°F3.1°C 32.3°F0.2°C 81% 3.5 mph WSW5.6 kmh WSW 5.8 mph9.3 kmh 29.96 in1014.6 mb - 0.00 in0.0 mm 0.00 in0.0 mm
12:50 AM 37.1°F2.8°C 32.1°F0.1°C 82% 3.5 mph WSW5.6 kmh WSW 4.6 mph7.4 kmh 29.96 in1014.6 mb - 0.00 in0.0 mm 0.00 in0.0 mm
12:55 AM 36.9°F2.7°C 31.9°F-0.1°C 82% 5.8 mph W9.3 kmh W 11.5 mph18.5 kmh 29.98 in1015.2 mb - 0.00 in0.0 mm 0.00 in0.0 mm
01:00 AM 37.4°F3.0°C 32.7°F0.4°C 83% 9.2 mph WSW14.8 kmh WSW 13.8 mph22.2 kmh 29.97 in1014.9 mb - 0.00 in0.0 mm 0.00 in0.0 mm
01:10 AM 37.1°F2.8°C 32.1°F0.1°C 82% 6.9 mph WSW11.1 kmh WSW 10.4 mph16.7 kmh 29.96 in1014.6 mb - 0.01 in0.3 mm 0.01 in0.3 mm
01:15 AM 36.9°F2.7°C 31.9°F-0.1°C 82% 5.8 mph WSW9.3 kmh WSW 9.2 mph14.8 kmh 29.97 in1014.9 mb - 0.01 in0.3 mm 0.01 in0.3 mm
01:20 AM 36.5°F2.5°C 31.8°F-0.1°C 83% 4.6 mph WSW7.4 kmh WSW 6.9 mph11.1 kmh 29.96 in1014.6 mb - 0.01 in0.3 mm 0.01 in0.3 mm
01:25 AM 36.2°F2.3°C 31.6°F-0.2°C 83% 4.6 mph WSW7.4 kmh WSW 6.9 mph11.1 kmh 29.96 in1014.6 mb - 0.01 in0.3 mm 0.01 in0.3 mm
01:30 AM 36.1°F2.3°C 31.7°F-0.2°C 84% 3.5 mph W5.6 kmh W 3.5 mph5.6 kmh 29.97 in1014.9 mb - 0.01 in0.3 mm 0.01 in0.3 mm
01:35 AM 36.1°F2.3°C 31.7°F-0.2°C 84% 3.5 mph W5.6 kmh W 3.5 mph5.6 kmh 29.97 in1014.9 mb - 0.01 in0.3 mm 0.01 in0.3 mm
01:40 AM 36.2°F2.3°C 31.8°F-0.1°C 84% 6.9 mph W11.1 kmh W 8.1 mph13.0 kmh 29.97 in1014.9 mb - 0.01 in0.3 mm 0.01 in0.3 mm
01:45 AM 36.4°F2.4°C 32.0°F0.0°C 84% 3.5 mph W5.6 kmh W 5.8 mph9.3 kmh 29.97 in1014.9 mb - 0.01 in0.3 mm 0.01 in0.3 mm
01:50 AM 36.5°F2.5°C 32.4°F0.2°C 85% 4.6 mph W7.4 kmh W 6.9 mph11.1 kmh 29.97 in1014.9 mb - 0.01 in0.3 mm 0.01 in0.3 mm
01:55 AM 36.7°F2.6°C 32.6°F0.3°C 85% 3.5 mph WNW5.6 kmh WNW 3.5 mph5.6 kmh 29.97 in1014.9 mb - 0.01 in0.3 mm 0.01 in0.3 mm
02:00 AM 37.0°F2.8°C 32.6°F0.3°C 84% 4.6 mph WNW7.4 kmh WNW 9.2 mph14.8 kmh 29.97 in1014.9 mb - 0.01 in0.3 mm 0.01 in0.3 mm
02:10 AM 37.3°F2.9°C 32.9°F0.5°C 84% 4.6 mph W7.4 kmh W 6.9 mph11.1 kmh 29.97 in1014.9 mb - 0.00 in0.0 mm 0.01 in0.3 mm
02:15 AM 36.9°F2.7°C 32.2°F0.1°C 83% 3.5 mph WSW5.6 kmh WSW 3.5 mph5.6 kmh 29.96 in1014.6 mb - 0.00 in0.0 mm 0.01 in0.3 mm
02:20 AM 36.1°F2.3°C 31.8°F-0.1°C 84% 3.5 mph WSW5.6 kmh WSW 3.5 mph5.6 kmh 29.96 in1014.6 mb - 0.00 in0.0 mm 0.01 in0.3 mm
02:25 AM 35.8°F2.1°C 31.7°F-0.2°C 85% 2.3 mph SW3.7 kmh SW 3.5 mph5.6 kmh 29.96 in1014.6 mb - 0.00 in0.0 mm 0.01 in0.3 mm
02:30 AM 35.6°F2.0°C 31.8°F-0.1°C 86% 3.5 mph SW5.6 kmh SW 3.5 mph5.6 kmh 29.96 in1014.6 mb - 0.00 in0.0 mm 0.01 in0.3 mm
02:35 AM 35.6°F2.0°C 31.8°F-0.1°C 86% 2.3 mph SW3.7 kmh SW 3.5 mph5.6 kmh 29.96 in1014.6 mb - 0.00 in0.0 mm 0.01 in0.3 mm
02:40 AM 35.3°F1.8°C 31.5°F-0.3°C 86% 2.3 mph SW3.7 kmh SW 3.5 mph5.6 kmh 29.96 in1014.6 mb - 0.00 in0.0 mm 0.01 in0.3 mm
02:45 AM 35.1°F1.7°C 31.3°F-0.4°C 86% 2.3 mph W3.7 kmh W 3.5 mph5.6 kmh 29.97 in1014.9 mb - 0.00 in0.0 mm 0.01 in0.3 mm
02:50 AM 35.8°F2.1°C 32.3°F0.2°C 87% 4.6 mph SW7.4 kmh SW 5.8 mph9.3 kmh 29.96 in1014.6 mb - 0.00 in0.0 mm 0.01 in0.3 mm
02:55 AM 36.1°F2.3°C 32.3°F0.2°C 86% 3.5 mph SW5.6 kmh SW 3.5 mph5.6 kmh 29.96 in1014.6 mb - 0.00 in0.0 mm 0.01 in0.3 mm
03:00 AM 35.9°F2.2°C 32.1°F0.1°C 86% 2.3 mph SW3.7 kmh SW 3.5 mph5.6 kmh 29.96 in1014.6 mb - 0.00 in0.0 mm 0.01 in0.3 mm
03:10 AM 35.5°F1.9°C 32.1°F0.1°C 87% 2.3 mph N3.7 kmh N 3.5 mph5.6 kmh 29.97 in1014.9 mb - 0.00 in0.0 mm 0.01 in0.3 mm
03:15 AM 36.1°F2.3°C 32.8°F0.4°C 88% 2.3 mph W3.7 kmh W 3.5 mph5.6 kmh 29.96 in1014.6 mb - 0.00 in0.0 mm 0.01 in0.3 mm
03:20 AM 36.0°F2.2°C 32.2°F0.1°C 86% 2.3 mph WNW3.7 kmh WNW 3.5 mph5.6 kmh 29.97 in1014.9 mb - 0.00 in0.0 mm 0.01 in0.3 mm
03:25 AM 36.0°F2.2°C 32.5°F0.3°C 87% 3.5 mph NW5.6 kmh NW 4.6 mph7.4 kmh 29.98 in1015.2 mb - 0.00 in0.0 mm 0.01 in0.3 mm
03:30 AM 36.3°F2.4°C 32.8°F0.4°C 87% 1.2 mph WNW1.9 kmh WNW 2.3 mph3.7 kmh 29.97 in1014.9 mb - 0.00 in0.0 mm 0.01 in0.3 mm
03:35 AM 35.9°F2.2°C 32.1°F0.1°C 86% 1.2 mph WNW1.9 kmh WNW 2.3 mph3.7 kmh 29.97 in1014.9 mb - 0.00 in0.0 mm 0.01 in0.3 mm
03:40 AM 35.8°F2.1°C 32.0°F0.0°C 86% 1.2 mph WNW1.9 kmh WNW 2.3 mph3.7 kmh 29.96 in1014.6 mb - 0.00 in0.0 mm 0.01 in0.3 mm
03:45 AM 35.0°F1.7°C 31.5°F-0.3°C 87% 1.2 mph SW1.9 kmh SW 3.5 mph5.6 kmh 29.97 in1014.9 mb - 0.00 in0.0 mm 0.01 in0.3 mm
03:50 AM 35.1°F1.7°C 31.9°F-0.1°C 88% 1.2 mph SW1.9 kmh SW 2.3 mph3.7 kmh 29.97 in1014.9 mb - 0.00 in0.0 mm 0.01 in0.3 mm
03:55 AM 34.9°F1.6°C 31.7°F-0.2°C 88% 1.2 mph SW1.9 kmh SW 1.2 mph1.9 kmh 29.96 in1014.6 mb - 0.00 in0.0 mm 0.01 in0.3 mm
04:00 AM 35.3°F1.8°C 32.3°F0.2°C 89% 1.2 mph SW1.9 kmh SW 2.3 mph3.7 kmh 29.97 in1014.9 mb - 0.00 in0.0 mm 0.01 in0.3 mm
04:10 AM 35.3°F1.8°C 32.4°F0.2°C 89% 3.5 mph WSW5.6 kmh WSW 8.1 mph13.0 kmh 29.96 in1014.6 mb - 0.00 in0.0 mm 0.01 in0.3 mm
04:15 AM 36.1°F2.3°C 33.2°F0.7°C 89% 6.9 mph W11.1 kmh W 9.2 mph14.8 kmh 29.97 in1014.9 mb - 0.00 in0.0 mm 0.01 in0.3 mm
04:20 AM 36.4°F2.4°C 32.9°F0.5°C 87% 4.6 mph WSW7.4 kmh WSW 5.8 mph9.3 kmh 29.97 in1014.9 mb - 0.00 in0.0 mm 0.01 in0.3 mm
04:25 AM 36.3°F2.4°C 32.5°F0.3°C 86% 3.5 mph WSW5.6 kmh WSW 5.8 mph9.3 kmh 29.97 in1014.9 mb - 0.00 in0.0 mm 0.01 in0.3 mm
04:30 AM 36.2°F2.3°C 32.1°F0.1°C 85% 3.5 mph WSW5.6 kmh WSW 3.5 mph5.6 kmh 29.97 in1014.9 mb - 0.00 in0.0 mm 0.01 in0.3 mm
04:35 AM 36.0°F2.2°C 31.9°F-0.1°C 85% 3.5 mph WSW5.6 kmh WSW 4.6 mph7.4 kmh 29.97 in1014.9 mb - 0.00 in0.0 mm 0.01 in0.3 mm
04:40 AM 36.1°F2.3°C 32.0°F0.0°C 85% 5.8 mph WNW9.3 kmh WNW 11.5 mph18.5 kmh 29.97 in1014.9 mb - 0.00 in0.0 mm 0.01 in0.3 mm
04:45 AM 36.7°F2.6°C 32.9°F0.5°C 86% 5.8 mph W9.3 kmh W 9.2 mph14.8 kmh 29.97 in1014.9 mb - 0.01 in0.3 mm 0.02 in0.5 mm
04:50 AM 37.0°F2.8°C 32.9°F0.5°C 85% 4.6 mph WSW7.4 kmh WSW 8.1 mph13.0 kmh 29.97 in1014.9 mb - 0.01 in0.3 mm 0.02 in0.5 mm
04:55 AM 36.8°F2.7°C 32.7°F0.4°C 85% 4.6 mph WSW7.4 kmh WSW 5.8 mph9.3 kmh 29.97 in1014.9 mb - 0.01 in0.3 mm 0.02 in0.5 mm
05:00 AM 36.3°F2.4°C 32.2°F0.1°C 85% 2.3 mph WSW3.7 kmh WSW 3.5 mph5.6 kmh 29.97 in1014.9 mb - 0.01 in0.3 mm 0.02 in0.5 mm
05:10 AM 35.8°F2.1°C 32.0°F0.0°C 86% 2.3 mph WSW3.7 kmh WSW 3.5 mph5.6 kmh 29.97 in1014.9 mb - 0.01 in0.3 mm 0.02 in0.5 mm
05:15 AM 36.1°F2.3°C 32.3°F0.2°C 86% 3.5 mph SW5.6 kmh SW 4.6 mph7.4 kmh 29.97 in1014.9 mb - 0.01 in0.3 mm 0.02 in0.5 mm
05:20 AM 36.0°F2.2°C 32.2°F0.1°C 86% 2.3 mph SW3.7 kmh SW 3.5 mph5.6 kmh 29.97 in1014.9 mb - 0.01 in0.3 mm 0.02 in0.5 mm
05:25 AM 35.9°F2.2°C 32.1°F0.1°C 86% 2.3 mph SW3.7 kmh SW 3.5 mph5.6 kmh 29.97 in1014.9 mb - 0.01 in0.3 mm 0.02 in0.5 mm
05:30 AM 35.8°F2.1°C 32.0°F0.0°C 86% 2.3 mph SW3.7 kmh SW 3.5 mph5.6 kmh 29.97 in1014.9 mb - 0.01 in0.3 mm 0.02 in0.5 mm
05:35 AM 36.0°F2.2°C 32.5°F0.3°C 87% 2.3 mph SW3.7 kmh SW 3.5 mph5.6 kmh 29.97 in1014.9 mb - 0.01 in0.3 mm 0.02 in0.5 mm
05:40 AM 36.4°F2.4°C 32.9°F0.5°C 87% 5.8 mph WSW9.3 kmh WSW 10.4 mph16.7 kmh 29.97 in1014.9 mb - 0.01 in0.3 mm 0.02 in0.5 mm
05:45 AM 37.5°F3.1°C 33.7°F0.9°C 86% 5.8 mph W9.3 kmh W 6.9 mph11.1 kmh 29.96 in1014.6 mb - 0.00 in0.0 mm 0.02 in0.5 mm
05:50 AM 37.8°F3.2°C 33.4°F0.8°C 84% 4.6 mph W7.4 kmh W 6.9 mph11.1 kmh 29.96 in1014.6 mb - 0.00 in0.0 mm 0.02 in0.5 mm
05:55 AM 38.2°F3.4°C 33.8°F1.0°C 84% 4.6 mph W7.4 kmh W 8.1 mph13.0 kmh 29.96 in1014.6 mb - 0.00 in0.0 mm 0.02 in0.5 mm
06:00 AM 38.5°F3.6°C 34.1°F1.2°C 84% 4.6 mph WSW7.4 kmh WSW 4.6 mph7.4 kmh 29.96 in1014.6 mb - 0.00 in0.0 mm 0.02 in0.5 mm
06:10 AM 39.1°F3.9°C 34.7°F1.5°C 84% 5.8 mph WSW9.3 kmh WSW 8.1 mph13.0 kmh 29.97 in1014.9 mb - 0.00 in0.0 mm 0.02 in0.5 mm
06:15 AM 39.4°F4.1°C 35.0°F1.7°C 84% 6.9 mph WSW11.1 kmh WSW 8.1 mph13.0 kmh 29.97 in1014.9 mb - 0.00 in0.0 mm 0.02 in0.5 mm
06:20 AM 39.6°F4.2°C 35.1°F1.7°C 84% 5.8 mph WSW9.3 kmh WSW 10.4 mph16.7 kmh 29.97 in1014.9 mb - 0.00 in0.0 mm 0.02 in0.5 mm
06:25 AM 40.4°F4.7°C 35.3°F1.8°C 82% 9.2 mph WSW14.8 kmh WSW 11.5 mph18.5 kmh 29.97 in1014.9 mb - 0.00 in0.0 mm 0.02 in0.5 mm
06:30 AM 40.7°F4.8°C 35.3°F1.8°C 81% 8.1 mph WSW13.0 kmh WSW 10.4 mph16.7 kmh 29.97 in1014.9 mb - 0.00 in0.0 mm 0.02 in0.5 mm
06:35 AM 40.5°F4.7°C 35.4°F1.9°C 82% 6.9 mph WSW11.1 kmh WSW 8.1 mph13.0 kmh 29.97 in1014.9 mb - 0.00 in0.0 mm 0.02 in0.5 mm
06:40 AM 40.6°F4.8°C 35.5°F1.9°C 82% 6.9 mph WSW11.1 kmh WSW 9.2 mph14.8 kmh 29.97 in1014.9 mb - 0.00 in0.0 mm 0.02 in0.5 mm
06:45 AM 40.9°F4.9°C 35.9°F2.2°C 82% 6.9 mph WSW11.1 kmh WSW 8.1 mph13.0 kmh 29.97 in1014.9 mb - 0.00 in0.0 mm 0.02 in0.5 mm
06:50 AM 41.2°F5.1°C 35.8°F2.1°C 81% 6.9 mph WSW11.1 kmh WSW 9.2 mph14.8 kmh 29.97 in1014.9 mb - 0.00 in0.0 mm 0.02 in0.5 mm
06:55 AM 41.4°F5.2°C 36.4°F2.4°C 82% 4.6 mph WSW7.4 kmh WSW 9.2 mph14.8 kmh 29.97 in1014.9 mb - 0.00 in0.0 mm 0.02 in0.5 mm
07:00 AM 41.7°F5.4°C 36.3°F2.4°C 81% 8.1 mph WSW13.0 kmh WSW 11.5 mph18.5 kmh 29.97 in1014.9 mb - 0.00 in0.0 mm 0.02 in0.5 mm
07:10 AM 42.5°F5.8°C 36.8°F2.7°C 80% 8.1 mph W13.0 kmh W 10.4 mph16.7 kmh 29.97 in1014.9 mb - 0.00 in0.0 mm 0.02 in0.5 mm
07:15 AM 43.1°F6.2°C 37.3°F2.9°C 80% 6.9 mph W11.1 kmh W 11.5 mph18.5 kmh 29.97 in1014.9 mb - 0.00 in0.0 mm 0.02 in0.5 mm
07:20 AM 43.2°F6.2°C 37.5°F3.1°C 80% 10.4 mph W16.7 kmh W 15.0 mph24.1 kmh 29.97 in1014.9 mb - 0.00 in0.0 mm 0.02 in0.5 mm
07:25 AM 43.4°F6.3°C 36.4°F2.4°C 76% 10.4 mph W16.7 kmh W 12.7 mph20.4 kmh 29.97 in1014.9 mb - 0.00 in0.0 mm 0.02 in0.5 mm
07:30 AM 43.9°F6.6°C 36.2°F2.3°C 74% 9.2 mph WSW14.8 kmh WSW 13.8 mph22.2 kmh 29.97 in1014.9 mb - 0.00 in0.0 mm 0.02 in0.5 mm
07:35 AM 44.1°F6.7°C 36.0°F2.2°C 73% 13.8 mph W22.2 kmh W 16.1 mph25.9 kmh 29.97 in1014.9 mb - 0.00 in0.0 mm 0.02 in0.5 mm
07:40 AM 44.0°F6.7°C 35.6°F2.0°C 72% 11.5 mph W18.5 kmh W 17.3 mph27.8 kmh 29.97 in1014.9 mb - 0.00 in0.0 mm 0.02 in0.5 mm
07:45 AM 44.4°F6.9°C 36.3°F2.4°C 73% 11.5 mph WSW18.5 kmh WSW 16.1 mph25.9 kmh 29.97 in1014.9 mb - 0.00 in0.0 mm 0.02 in0.5 mm
07:50 AM 44.6°F7.0°C 36.5°F2.5°C 73% 12.7 mph W20.4 kmh W 18.4 mph29.6 kmh 29.97 in1014.9 mb - 0.00 in0.0 mm 0.02 in0.5 mm
07:55 AM 44.2°F6.8°C 35.8°F2.1°C 72% 10.4 mph WSW16.7 kmh WSW 12.7 mph20.4 kmh 29.97 in1014.9 mb - 0.00 in0.0 mm 0.02 in0.5 mm
08:00 AM 44.8°F7.1°C 36.7°F2.6°C 73% 11.5 mph W18.5 kmh W 12.7 mph20.4 kmh 29.97 in1014.9 mb - 0.00 in0.0 mm 0.02 in0.5 mm
08:10 AM 45.0°F7.2°C 36.9°F2.7°C 73% 10.4 mph W16.7 kmh W 12.7 mph20.4 kmh 29.97 in1014.9 mb - 0.00 in0.0 mm 0.02 in0.5 mm
08:15 AM 45.1°F7.3°C 36.9°F2.7°C 73% 12.7 mph W20.4 kmh W 19.6 mph31.5 kmh 29.97 in1014.9 mb - 0.00 in0.0 mm 0.02 in0.5 mm
08:20 AM 45.4°F7.4°C 37.6°F3.1°C 74% 10.4 mph W16.7 kmh W 15.0 mph24.1 kmh 29.97 in1014.9 mb - 0.00 in0.0 mm 0.02 in0.5 mm
08:25 AM 45.9°F7.7°C 37.4°F3.0°C 72% 12.7 mph W20.4 kmh W 16.1 mph25.9 kmh 29.97 in1014.9 mb - 0.00 in0.0 mm 0.02 in0.5 mm
08:30 AM 46.4°F8.0°C 37.9°F3.3°C 72% 12.7 mph W20.4 kmh W 18.4 mph29.6 kmh 29.97 in1014.9 mb - 0.00 in0.0 mm 0.02 in0.5 mm
08:35 AM 46.6°F8.1°C 37.7°F3.2°C 71% 12.7 mph W20.4 kmh W 13.8 mph22.2 kmh 29.97 in1014.9 mb - 0.00 in0.0 mm 0.02 in0.5 mm
08:40 AM 46.2°F7.9°C 36.2°F2.3°C 68% 13.8 mph WSW22.2 kmh WSW 18.4 mph29.6 kmh 29.97 in1014.9 mb - 0.00 in0.0 mm 0.02 in0.5 mm
08:45 AM 45.7°F7.6°C 37.2°F2.9°C 72% 10.4 mph WSW16.7 kmh WSW 13.8 mph22.2 kmh 29.97 in1014.9 mb - 0.00 in0.0 mm 0.02 in0.5 mm
08:50 AM 46.3°F7.9°C 37.8°F3.2°C 72% 10.4 mph WSW16.7 kmh WSW 12.7 mph20.4 kmh 29.97 in1014.9 mb - 0.00 in0.0 mm 0.02 in0.5 mm
08:55 AM 46.6°F8.1°C 37.3°F2.9°C 70% 13.8 mph WSW22.2 kmh WSW 17.3 mph27.8 kmh 29.97 in1014.9 mb - 0.00 in0.0 mm 0.02 in0.5 mm
09:00 AM 46.8°F8.2°C 37.9°F3.3°C 71% 9.2 mph W14.8 kmh W 12.7 mph20.4 kmh 29.96 in1014.6 mb - 0.00 in0.0 mm 0.02 in0.5 mm
09:10 AM 47.7°F8.7°C 38.7°F3.7°C 71% 10.4 mph W16.7 kmh W 18.4 mph29.6 kmh 29.96 in1014.6 mb - 0.00 in0.0 mm 0.02 in0.5 mm
09:15 AM 47.2°F8.4°C 37.9°F3.3°C 70% 15.0 mph WSW24.1 kmh WSW 17.3 mph27.8 kmh 29.97 in1014.9 mb - 0.00 in0.0 mm 0.02 in0.5 mm
09:20 AM 44.1°F6.7°C 36.3°F2.4°C 74% 10.4 mph WSW16.7 kmh WSW 15.0 mph24.1 kmh 29.97 in1014.9 mb - 0.00 in0.0 mm 0.02 in0.5 mm
09:25 AM 43.6°F6.4°C 35.8°F2.1°C 74% 9.2 mph W14.8 kmh W 11.5 mph18.5 kmh 29.97 in1014.9 mb - 0.00 in0.0 mm 0.02 in0.5 mm
09:30 AM 45.0°F7.2°C 37.2°F2.9°C 74% 11.5 mph WSW18.5 kmh WSW 15.0 mph24.1 kmh 29.97 in1014.9 mb - 0.00 in0.0 mm 0.02 in0.5 mm
09:35 AM 47.2°F8.4°C 39.0°F3.9°C 73% 9.2 mph W14.8 kmh W 12.7 mph20.4 kmh 29.97 in1014.9 mb - 0.00 in0.0 mm 0.02 in0.5 mm
09:40 AM 47.4°F8.6°C 37.7°F3.2°C 69% 12.7 mph WSW20.4 kmh WSW 16.1 mph25.9 kmh 29.97 in1014.9 mb - 0.00 in0.0 mm 0.02 in0.5 mm
09:45 AM 47.3°F8.5°C 37.6°F3.1°C 69% 10.4 mph WNW16.7 kmh WNW 17.3 mph27.8 kmh 29.97 in1014.9 mb - 0.00 in0.0 mm 0.02 in0.5 mm
09:50 AM 46.7°F8.2°C 36.7°F2.6°C 68% 12.7 mph W20.4 kmh W 19.6 mph31.5 kmh 29.97 in1014.9 mb - 0.00 in0.0 mm 0.02 in0.5 mm
09:55 AM 47.2°F8.4°C 37.6°F3.1°C 69% 19.6 mph WNW31.5 kmh WNW 25.3 mph40.7 kmh 29.98 in1015.2 mb - 0.00 in0.0 mm 0.02 in0.5 mm
10:00 AM 44.5°F6.9°C 36.4°F2.4°C 73% 12.7 mph WNW20.4 kmh WNW 16.1 mph25.9 kmh 29.98 in1015.2 mb - 0.00 in0.0 mm 0.02 in0.5 mm
10:10 AM 43.6°F6.4°C 36.5°F2.5°C 76% 9.2 mph WNW14.8 kmh WNW 11.5 mph18.5 kmh 29.98 in1015.2 mb - 0.00 in0.0 mm 0.02 in0.5 mm
10:15 AM 45.3°F7.4°C 36.8°F2.7°C 72% 10.4 mph W16.7 kmh W 16.1 mph25.9 kmh 29.98 in1015.2 mb - 0.00 in0.0 mm 0.02 in0.5 mm
10:20 AM 46.9°F8.3°C 37.6°F3.1°C 70% 10.4 mph W16.7 kmh W 12.7 mph20.4 kmh 29.98 in1015.2 mb - 0.00 in0.0 mm 0.02 in0.5 mm
10:25 AM 46.8°F8.2°C 36.0°F2.2°C 66% 16.1 mph WSW25.9 kmh WSW 19.6 mph31.5 kmh 29.98 in1015.2 mb - 0.00 in0.0 mm 0.02 in0.5 mm
10:30 AM 44.0°F6.7°C 34.1°F1.2°C 68% 11.5 mph WSW18.5 kmh WSW 15.0 mph24.1 kmh 29.98 in1015.2 mb - 0.00 in0.0 mm 0.02 in0.5 mm
10:35 AM 44.5°F6.9°C 35.7°F2.1°C 71% 9.2 mph W14.8 kmh W 11.5 mph18.5 kmh 29.98 in1015.2 mb - 0.00 in0.0 mm 0.02 in0.5 mm
10:40 AM 46.9°F8.3°C 38.4°F3.6°C 72% 12.7 mph W20.4 kmh W 17.3 mph27.8 kmh 29.98 in1015.2 mb - 0.00 in0.0 mm 0.02 in0.5 mm
10:45 AM 48.3°F9.1°C 38.6°F3.7°C 69% 12.7 mph W20.4 kmh W 19.6 mph31.5 kmh 29.98 in1015.2 mb - 0.00 in0.0 mm 0.02 in0.5 mm
10:50 AM 46.2°F7.9°C 36.2°F2.3°C 68% 15.0 mph W24.1 kmh W 18.4 mph29.6 kmh 29.99 in1015.6 mb - 0.00 in0.0 mm 0.02 in0.5 mm
10:55 AM 43.9°F6.6°C 36.1°F2.3°C 74% 13.8 mph W22.2 kmh W 18.4 mph29.6 kmh 29.99 in1015.6 mb - 0.00 in0.0 mm 0.02 in0.5 mm
11:00 AM 42.6°F5.9°C 35.9°F2.2°C 77% 10.4 mph W16.7 kmh W 12.7 mph20.4 kmh 29.99 in1015.6 mb - 0.00 in0.0 mm 0.02 in0.5 mm
11:10 AM 42.9°F6.1°C 35.9°F2.2°C 76% 8.1 mph W13.0 kmh W 10.4 mph16.7 kmh 29.98 in1015.2 mb - 0.00 in0.0 mm 0.02 in0.5 mm
11:15 AM 44.2°F6.8°C 36.1°F2.3°C 73% 6.9 mph W11.1 kmh W 11.5 mph18.5 kmh 29.98 in1015.2 mb - 0.00 in0.0 mm 0.02 in0.5 mm
11:20 AM 46.1°F7.8°C 37.6°F3.1°C 72% 9.2 mph W14.8 kmh W 11.5 mph18.5 kmh 29.98 in1015.2 mb - 0.00 in0.0 mm 0.02 in0.5 mm
11:25 AM 46.8°F8.2°C 38.3°F3.5°C 72% 8.1 mph W13.0 kmh W 9.2 mph14.8 kmh 29.98 in1015.2 mb - 0.00 in0.0 mm 0.02 in0.5 mm
11:30 AM 47.7°F8.7°C 37.3°F2.9°C 67% 10.4 mph W16.7 kmh W 11.5 mph18.5 kmh 29.97 in1014.9 mb - 0.00 in0.0 mm 0.02 in0.5 mm
11:35 AM 46.5°F8.1°C 37.3°F2.9°C 70% 11.5 mph WSW18.5 kmh WSW 18.4 mph29.6 kmh 29.98 in1015.2 mb - 0.00 in0.0 mm 0.02 in0.5 mm
11:40 AM 46.3°F7.9°C 37.7°F3.2°C 72% 10.4 mph WSW16.7 kmh WSW 13.8 mph22.2 kmh 29.98 in1015.2 mb - 0.00 in0.0 mm 0.02 in0.5 mm
11:45 AM 48.7°F9.3°C 40.0°F4.4°C 72% 11.5 mph W18.5 kmh W 12.7 mph20.4 kmh 29.97 in1014.9 mb - 0.00 in0.0 mm 0.02 in0.5 mm
11:50 AM 47.8°F8.8°C 37.7°F3.2°C 68% 11.5 mph WSW18.5 kmh WSW 16.1 mph25.9 kmh 29.97 in1014.9 mb - 0.00 in0.0 mm 0.02 in0.5 mm
11:55 AM 47.3°F8.5°C 36.2°F2.3°C 65% 11.5 mph W18.5 kmh W 17.3 mph27.8 kmh 29.97 in1014.9 mb - 0.00 in0.0 mm 0.02 in0.5 mm
12:00 PM 47.0°F8.3°C 36.6°F2.6°C 67% 11.5 mph W18.5 kmh W 15.0 mph24.1 kmh 29.98 in1015.2 mb - 0.00 in0.0 mm 0.02 in0.5 mm
12:10 PM 46.1°F7.8°C 36.1°F2.3°C 68% 9.2 mph WNW14.8 kmh WNW 11.5 mph18.5 kmh 29.98 in1015.2 mb - 0.00 in0.0 mm 0.02 in0.5 mm
12:15 PM 46.1°F7.8°C 36.9°F2.7°C 70% 10.4 mph WNW16.7 kmh WNW 19.6 mph31.5 kmh 29.98 in1015.2 mb - 0.00 in0.0 mm 0.02 in0.5 mm
12:20 PM 45.1°F7.3°C 36.3°F2.4°C 71% 11.5 mph WNW18.5 kmh WNW 16.1 mph25.9 kmh 29.98 in1015.2 mb - 0.00 in0.0 mm 0.02 in0.5 mm
12:25 PM 44.6°F7.0°C 36.2°F2.3°C 72% 8.1 mph W13.0 kmh W 11.5 mph18.5 kmh 29.98 in1015.2 mb - 0.00 in0.0 mm 0.02 in0.5 mm
12:30 PM 45.2°F7.3°C 36.7°F2.6°C 72% 10.4 mph W16.7 kmh W 15.0 mph24.1 kmh 29.98 in1015.2 mb - 0.00 in0.0 mm 0.02 in0.5 mm
12:35 PM 46.2°F7.9°C 36.9°F2.7°C 70% 10.4 mph W16.7 kmh W 16.1 mph25.9 kmh 29.98 in1015.2 mb - 0.00 in0.0 mm 0.02 in0.5 mm
12:40 PM 46.5°F8.1°C 36.5°F2.5°C 68% 10.4 mph W16.7 kmh W 12.7 mph20.4 kmh 29.98 in1015.2 mb - 0.00 in0.0 mm 0.02 in0.5 mm
12:45 PM 46.1°F7.8°C 36.1°F2.3°C 68% 12.7 mph WSW20.4 kmh WSW 19.6 mph31.5 kmh 29.98 in1015.2 mb - 0.00 in0.0 mm 0.02 in0.5 mm
12:50 PM 45.8°F7.7°C 35.8°F2.1°C 68% 11.5 mph W18.5 kmh W 16.1 mph25.9 kmh 29.98 in1015.2 mb - 0.01 in0.3 mm 0.02 in0.5 mm
12:55 PM 47.2°F8.4°C 37.2°F2.9°C 68% 10.4 mph W16.7 kmh W 17.3 mph27.8 kmh 29.98 in1015.2 mb - 0.01 in0.3 mm 0.02 in0.5 mm
01:00 PM 49.3°F9.6°C 37.6°F3.1°C 64% 12.7 mph WSW20.4 kmh WSW 19.6 mph31.5 kmh 29.98 in1015.2 mb - 0.01 in0.3 mm 0.02 in0.5 mm
01:10 PM 49.3°F9.6°C 36.4°F2.4°C 61% 11.5 mph W18.5 kmh W 18.4 mph29.6 kmh 29.98 in1015.2 mb - 0.01 in0.3 mm 0.02 in0.5 mm
01:15 PM 48.7°F9.3°C 36.2°F2.3°C 62% 12.7 mph WSW20.4 kmh WSW 17.3 mph27.8 kmh 29.98 in1015.2 mb - 0.01 in0.3 mm 0.02 in0.5 mm
01:20 PM 48.1°F8.9°C 36.1°F2.3°C 63% 10.4 mph W16.7 kmh W 17.3 mph27.8 kmh 29.97 in1014.9 mb - 0.01 in0.3 mm 0.02 in0.5 mm
01:25 PM 47.0°F8.3°C 35.1°F1.7°C 63% 11.5 mph WSW18.5 kmh WSW 17.3 mph27.8 kmh 29.98 in1015.2 mb - 0.01 in0.3 mm 0.02 in0.5 mm
01:30 PM 48.4°F9.1°C 35.5°F1.9°C 61% 13.8 mph WSW22.2 kmh WSW 17.3 mph27.8 kmh 29.97 in1014.9 mb - 0.01 in0.3 mm 0.02 in0.5 mm
01:35 PM 48.4°F9.1°C 36.0°F2.2°C 62% 12.7 mph WSW20.4 kmh WSW 15.0 mph24.1 kmh 29.97 in1014.9 mb - 0.01 in0.3 mm 0.02 in0.5 mm
01:40 PM 49.2°F9.6°C 34.6°F1.4°C 57% 13.8 mph WSW22.2 kmh WSW 18.4 mph29.6 kmh 29.97 in1014.9 mb - 0.01 in0.3 mm 0.02 in0.5 mm
01:45 PM 47.6°F8.7°C 34.8°F1.6°C 61% 12.7 mph W20.4 kmh W 15.0 mph24.1 kmh 29.97 in1014.9 mb - 0.01 in0.3 mm 0.02 in0.5 mm
01:50 PM 47.1°F8.4°C 35.5°F1.9°C 64% 15.0 mph WSW24.1 kmh WSW 19.6 mph31.5 kmh 29.97 in1014.9 mb - 0.00 in0.0 mm 0.02 in0.5 mm
01:55 PM 48.0°F8.9°C 36.4°F2.4°C 64% 18.4 mph W29.6 kmh W 21.9 mph35.2 kmh 29.98 in1015.2 mb - 0.00 in0.0 mm 0.02 in0.5 mm
02:00 PM 48.3°F9.1°C 37.0°F2.8°C 65% 16.1 mph WSW25.9 kmh WSW 23.0 mph37.0 kmh 29.98 in1015.2 mb - 0.00 in0.0 mm 0.02 in0.5 mm
02:10 PM 46.5°F8.1°C 34.6°F1.4°C 63% 11.5 mph W18.5 kmh W 17.3 mph27.8 kmh 29.98 in1015.2 mb - 0.00 in0.0 mm 0.02 in0.5 mm
02:15 PM 45.9°F7.7°C 34.4°F1.3°C 64% 10.4 mph WSW16.7 kmh WSW 11.5 mph18.5 kmh 29.97 in1014.9 mb - 0.00 in0.0 mm 0.02 in0.5 mm
02:20 PM 46.8°F8.2°C 35.6°F2.0°C 65% 9.2 mph WSW14.8 kmh WSW 15.0 mph24.1 kmh 29.97 in1014.9 mb - 0.00 in0.0 mm 0.02 in0.5 mm
02:25 PM 49.4°F9.7°C 37.4°F3.0°C 63% 11.5 mph W18.5 kmh W 12.7 mph20.4 kmh 29.97 in1014.9 mb - 0.00 in0.0 mm 0.02 in0.5 mm
02:30 PM 49.1°F9.5°C 36.2°F2.3°C 61% 11.5 mph W18.5 kmh W 11.5 mph18.5 kmh 29.97 in1014.9 mb - 0.00 in0.0 mm 0.02 in0.5 mm
02:35 PM 48.0°F8.9°C 36.0°F2.2°C 63% 13.8 mph W22.2 kmh W 19.6 mph31.5 kmh 29.97 in1014.9 mb - 0.00 in0.0 mm 0.02 in0.5 mm
02:40 PM 48.5°F9.2°C 37.6°F3.1°C 66% 15.0 mph WSW24.1 kmh WSW 17.3 mph27.8 kmh 29.97 in1014.9 mb - 0.00 in0.0 mm 0.02 in0.5 mm
02:45 PM 49.5°F9.7°C 38.2°F3.4°C 65% 13.8 mph WSW22.2 kmh WSW 18.4 mph29.6 kmh 29.97 in1014.9 mb - 0.00 in0.0 mm 0.02 in0.5 mm
02:50 PM 48.9°F9.4°C 37.3°F2.9°C 64% 10.4 mph W16.7 kmh W 15.0 mph24.1 kmh 29.97 in1014.9 mb - 0.00 in0.0 mm 0.02 in0.5 mm
02:55 PM 48.0°F8.9°C 37.1°F2.8°C 66% 9.2 mph W14.8 kmh W 15.0 mph24.1 kmh 29.97 in1014.9 mb - 0.00 in0.0 mm 0.02 in0.5 mm
03:00 PM 49.6°F9.8°C 37.1°F2.8°C 62% 9.2 mph W14.8 kmh W 10.4 mph16.7 kmh 29.97 in1014.9 mb - 0.00 in0.0 mm 0.02 in0.5 mm
03:10 PM 48.2°F9.0°C 37.0°F2.8°C 65% 9.2 mph W14.8 kmh W 12.7 mph20.4 kmh 29.97 in1014.9 mb - 0.00 in0.0 mm 0.02 in0.5 mm
03:15 PM 47.9°F8.8°C 36.3°F2.4°C 64% 11.5 mph W18.5 kmh W 15.0 mph24.1 kmh 29.97 in1014.9 mb - 0.00 in0.0 mm 0.02 in0.5 mm
03:20 PM 47.9°F8.8°C 36.7°F2.6°C 65% 10.4 mph W16.7 kmh W 15.0 mph24.1 kmh 29.97 in1014.9 mb - 0.00 in0.0 mm 0.02 in0.5 mm
03:25 PM 47.3°F8.5°C 36.5°F2.5°C 66% 10.4 mph WSW16.7 kmh WSW 15.0 mph24.1 kmh 29.96 in1014.6 mb - 0.00 in0.0 mm 0.02 in0.5 mm
03:30 PM 47.1°F8.4°C 36.3°F2.4°C 66% 9.2 mph WSW14.8 kmh WSW 11.5 mph18.5 kmh 29.97 in1014.9 mb - 0.00 in0.0 mm 0.02 in0.5 mm
03:35 PM 47.0°F8.3°C 36.3°F2.4°C 66% 10.4 mph WSW16.7 kmh WSW 16.1 mph25.9 kmh 29.96 in1014.6 mb - 0.00 in0.0 mm 0.02 in0.5 mm
03:40 PM 47.4°F8.6°C 35.4°F1.9°C 63% 11.5 mph W18.5 kmh W 16.1 mph25.9 kmh 29.96 in1014.6 mb - 0.00 in0.0 mm 0.02 in0.5 mm
03:45 PM 47.2°F8.4°C 35.2°F1.8°C 63% 10.4 mph WSW16.7 kmh WSW 17.3 mph27.8 kmh 29.96 in1014.6 mb - 0.00 in0.0 mm 0.02 in0.5 mm
03:50 PM 47.9°F8.8°C 35.5°F1.9°C 62% 11.5 mph W18.5 kmh W 12.7 mph20.4 kmh 29.96 in1014.6 mb - 0.00 in0.0 mm 0.02 in0.5 mm
03:55 PM 48.7°F9.3°C 35.4°F1.9°C 60% 11.5 mph W18.5 kmh W 15.0 mph24.1 kmh 29.96 in1014.6 mb - 0.00 in0.0 mm 0.02 in0.5 mm
04:00 PM 48.6°F9.2°C 35.4°F1.9°C 60% 11.5 mph WNW18.5 kmh WNW 16.1 mph25.9 kmh 29.96 in1014.6 mb - 0.00 in0.0 mm 0.02 in0.5 mm
04:10 PM 48.7°F9.3°C 35.0°F1.7°C 59% 12.7 mph W20.4 kmh W 17.3 mph27.8 kmh 29.96 in1014.6 mb - 0.00 in0.0 mm 0.02 in0.5 mm
04:15 PM 47.4°F8.6°C 34.6°F1.4°C 61% 9.2 mph W14.8 kmh W 12.7 mph20.4 kmh 29.96 in1014.6 mb - 0.00 in0.0 mm 0.02 in0.5 mm
04:20 PM 47.4°F8.6°C 36.3°F2.4°C 65% 6.9 mph W11.1 kmh W 8.1 mph13.0 kmh 29.96 in1014.6 mb - 0.00 in0.0 mm 0.02 in0.5 mm
04:25 PM 48.6°F9.2°C 35.4°F1.9°C 60% 11.5 mph W18.5 kmh W 13.8 mph22.2 kmh 29.95 in1014.2 mb - 0.00 in0.0 mm 0.02 in0.5 mm
04:30 PM 47.5°F8.6°C 34.8°F1.6°C 61% 10.4 mph W16.7 kmh W 11.5 mph18.5 kmh 29.96 in1014.6 mb - 0.00 in0.0 mm 0.02 in0.5 mm
04:35 PM 47.1°F8.4°C 35.2°F1.8°C 63% 8.1 mph WSW13.0 kmh WSW 12.7 mph20.4 kmh 29.96 in1014.6 mb - 0.00 in0.0 mm 0.02 in0.5 mm
04:40 PM 47.5°F8.6°C 34.3°F1.3°C 60% 10.4 mph WSW16.7 kmh WSW 12.7 mph20.4 kmh 29.95 in1014.2 mb - 0.00 in0.0 mm 0.02 in0.5 mm
04:45 PM 48.2°F9.0°C 35.4°F1.9°C 61% 8.1 mph W13.0 kmh W 11.5 mph18.5 kmh 29.95 in1014.2 mb - 0.00 in0.0 mm 0.02 in0.5 mm
04:50 PM 47.5°F8.6°C 34.7°F1.5°C 61% 9.2 mph W14.8 kmh W 11.5 mph18.5 kmh 29.96 in1014.6 mb - 0.00 in0.0 mm 0.02 in0.5 mm
04:55 PM 47.8°F8.8°C 34.6°F1.4°C 60% 12.7 mph WSW20.4 kmh WSW 17.3 mph27.8 kmh 29.95 in1014.2 mb - 0.00 in0.0 mm 0.02 in0.5 mm
05:00 PM 47.8°F8.8°C 35.0°F1.7°C 61% 9.2 mph W14.8 kmh W 11.5 mph18.5 kmh 29.95 in1014.2 mb - 0.00 in0.0 mm 0.02 in0.5 mm
05:10 PM 48.7°F9.3°C 35.0°F1.7°C 59% 11.5 mph WSW18.5 kmh WSW 16.1 mph25.9 kmh 29.95 in1014.2 mb - 0.00 in0.0 mm 0.02 in0.5 mm
05:15 PM 48.1°F8.9°C 33.6°F0.9°C 57% 11.5 mph WSW18.5 kmh WSW 12.7 mph20.4 kmh 29.95 in1014.2 mb - 0.00 in0.0 mm 0.02 in0.5 mm
05:20 PM 47.6°F8.7°C 34.0°F1.1°C 59% 9.2 mph W14.8 kmh W 12.7 mph20.4 kmh 29.95 in1014.2 mb - 0.00 in0.0 mm 0.02 in0.5 mm
05:25 PM 47.1°F8.4°C 33.5°F0.8°C 59% 9.2 mph W14.8 kmh W 11.5 mph18.5 kmh 29.95 in1014.2 mb - 0.00 in0.0 mm 0.02 in0.5 mm
05:30 PM 46.1°F7.8°C 34.2°F1.2°C 63% 4.6 mph W7.4 kmh W 6.9 mph11.1 kmh 29.95 in1014.2 mb - 0.00 in0.0 mm 0.02 in0.5 mm
05:35 PM 47.2°F8.4°C 34.9°F1.6°C 62% 5.8 mph W9.3 kmh W 9.2 mph14.8 kmh 29.95 in1014.2 mb - 0.00 in0.0 mm 0.02 in0.5 mm
05:40 PM 47.1°F8.4°C 34.7°F1.5°C 62% 9.2 mph WSW14.8 kmh WSW 16.1 mph25.9 kmh 29.95 in1014.2 mb - 0.00 in0.0 mm 0.02 in0.5 mm
05:45 PM 47.4°F8.6°C 35.4°F1.9°C 63% 5.8 mph W9.3 kmh W 8.1 mph13.0 kmh 29.95 in1014.2 mb - 0.00 in0.0 mm 0.02 in0.5 mm
05:50 PM 47.9°F8.8°C 35.1°F1.7°C 61% 6.9 mph W11.1 kmh W 9.2 mph14.8 kmh 29.95 in1014.2 mb - 0.00 in0.0 mm 0.02 in0.5 mm
05:55 PM 47.0°F8.3°C 34.7°F1.5°C 62% 8.1 mph WSW13.0 kmh WSW 10.4 mph16.7 kmh 29.95 in1014.2 mb - 0.00 in0.0 mm 0.02 in0.5 mm
06:00 PM 46.1°F7.8°C 34.2°F1.2°C 63% 5.8 mph SW9.3 kmh SW 9.2 mph14.8 kmh 29.95 in1014.2 mb - 0.00 in0.0 mm 0.02 in0.5 mm
06:10 PM 47.5°F8.6°C 35.1°F1.7°C 62% 5.8 mph WSW9.3 kmh WSW 8.1 mph13.0 kmh 29.95 in1014.2 mb - 0.00 in0.0 mm 0.02 in0.5 mm
06:15 PM 46.9°F8.3°C 34.6°F1.4°C 62% 8.1 mph WSW13.0 kmh WSW 11.5 mph18.5 kmh 29.95 in1014.2 mb - 0.00 in0.0 mm 0.02 in0.5 mm
06:20 PM 46.6°F8.1°C 34.3°F1.3°C 62% 6.9 mph WSW11.1 kmh WSW 8.1 mph13.0 kmh 29.95 in1014.2 mb - 0.00 in0.0 mm 0.02 in0.5 mm
06:25 PM 46.8°F8.2°C 34.8°F1.6°C 63% 3.5 mph WSW5.6 kmh WSW 6.9 mph11.1 kmh 29.95 in1014.2 mb - 0.00 in0.0 mm 0.02 in0.5 mm
06:30 PM 47.0°F8.3°C 34.6°F1.4°C 62% 6.9 mph WSW11.1 kmh WSW 9.2 mph14.8 kmh 29.95 in1014.2 mb - 0.00 in0.0 mm 0.02 in0.5 mm
06:35 PM 47.0°F8.3°C 33.8°F1.0°C 60% 8.1 mph WSW13.0 kmh WSW 11.5 mph18.5 kmh 29.95 in1014.2 mb - 0.00 in0.0 mm 0.02 in0.5 mm
06:40 PM 46.6°F8.1°C 33.5°F0.8°C 60% 5.8 mph W9.3 kmh W 8.1 mph13.0 kmh 29.94 in1013.9 mb - 0.00 in0.0 mm 0.02 in0.5 mm
06:45 PM 46.3°F7.9°C 34.0°F1.1°C 62% 6.9 mph W11.1 kmh W 11.5 mph18.5 kmh 29.94 in1013.9 mb - 0.00 in0.0 mm 0.02 in0.5 mm
06:50 PM 46.1°F7.8°C 33.8°F1.0°C 62% 5.8 mph W9.3 kmh W 11.5 mph18.5 kmh 29.94 in1013.9 mb - 0.00 in0.0 mm 0.02 in0.5 mm
06:55 PM 45.5°F7.5°C 33.7°F0.9°C 63% 6.9 mph W11.1 kmh W 11.5 mph18.5 kmh 29.94 in1013.9 mb - 0.00 in0.0 mm 0.02 in0.5 mm
07:00 PM 44.8°F7.1°C 33.4°F0.8°C 64% 6.9 mph W11.1 kmh W 9.2 mph14.8 kmh 29.95 in1014.2 mb - 0.00 in0.0 mm 0.02 in0.5 mm
07:10 PM 44.2°F6.8°C 33.2°F0.7°C 65% 4.6 mph W7.4 kmh W 6.9 mph11.1 kmh 29.94 in1013.9 mb - 0.00 in0.0 mm 0.02 in0.5 mm
07:15 PM 43.9°F6.6°C 33.3°F0.7°C 66% 4.6 mph W7.4 kmh W 5.8 mph9.3 kmh 29.94 in1013.9 mb - 0.00 in0.0 mm 0.02 in0.5 mm
07:20 PM 43.8°F6.6°C 33.2°F0.7°C 66% 3.5 mph W5.6 kmh W 3.5 mph5.6 kmh 29.94 in1013.9 mb - 0.00 in0.0 mm 0.02 in0.5 mm
07:25 PM 43.7°F6.5°C 33.5°F0.8°C 67% 3.5 mph W5.6 kmh W 6.9 mph11.1 kmh 29.94 in1013.9 mb - 0.00 in0.0 mm 0.02 in0.5 mm
07:30 PM 43.6°F6.4°C 33.0°F0.6°C 66% 3.5 mph W5.6 kmh W 3.5 mph5.6 kmh 29.94 in1013.9 mb - 0.00 in0.0 mm 0.02 in0.5 mm
07:35 PM 43.2°F6.2°C 33.3°F0.7°C 68% 2.3 mph W3.7 kmh W 3.5 mph5.6 kmh 29.93 in1013.5 mb - 0.00 in0.0 mm 0.02 in0.5 mm
07:40 PM 43.1°F6.2°C 33.3°F0.7°C 68% 2.3 mph W3.7 kmh W 3.5 mph5.6 kmh 29.94 in1013.9 mb - 0.00 in0.0 mm 0.02 in0.5 mm
07:45 PM 42.8°F6.0°C 33.3°F0.7°C 69% 2.3 mph W3.7 kmh W 3.5 mph5.6 kmh 29.93 in1013.5 mb - 0.00 in0.0 mm 0.02 in0.5 mm
07:50 PM 42.7°F5.9°C 33.3°F0.7°C 69% 2.3 mph WSW3.7 kmh WSW 3.5 mph5.6 kmh 29.94 in1013.9 mb - 0.00 in0.0 mm 0.02 in0.5 mm
07:55 PM 42.6°F5.9°C 33.5°F0.8°C 70% 2.3 mph WSW3.7 kmh WSW 3.5 mph5.6 kmh 29.94 in1013.9 mb - 0.00 in0.0 mm 0.02 in0.5 mm
08:00 PM 42.3°F5.7°C 33.2°F0.7°C 70% 2.3 mph WSW3.7 kmh WSW 3.5 mph5.6 kmh 29.94 in1013.9 mb - 0.00 in0.0 mm 0.02 in0.5 mm
08:10 PM 41.9°F5.5°C 33.2°F0.7°C 71% 1.2 mph WSW1.9 kmh WSW 2.3 mph3.7 kmh 29.94 in1013.9 mb - 0.00 in0.0 mm 0.02 in0.5 mm
08:15 PM 41.5°F5.3°C 33.2°F0.7°C 72% Calm Calm -- 29.94 in1013.9 mb - 0.00 in0.0 mm 0.02 in0.5 mm
08:20 PM 41.5°F5.3°C 33.1°F0.6°C 72% Calm Calm -- 29.94 in1013.9 mb - 0.00 in0.0 mm 0.02 in0.5 mm
08:25 PM 41.4°F5.2°C 33.4°F0.8°C 73% Calm Calm -- 29.93 in1013.5 mb - 0.00 in0.0 mm 0.02 in0.5 mm
08:30 PM 41.4°F5.2°C 33.4°F0.8°C 73% Calm Calm -- 29.93 in1013.5 mb - 0.00 in0.0 mm 0.02 in0.5 mm
08:35 PM 41.4°F5.2°C 33.4°F0.8°C 73% Calm Calm -- 29.94 in1013.9 mb - 0.00 in0.0 mm 0.02 in0.5 mm
08:40 PM 41.5°F5.3°C 33.5°F0.8°C 73% Calm Calm -- 29.94 in1013.9 mb - 0.00 in0.0 mm 0.02 in0.5 mm
08:45 PM 41.3°F5.2°C 33.6°F0.9°C 74% Calm Calm -- 29.93 in1013.5 mb - 0.00 in0.0 mm 0.02 in0.5 mm
08:50 PM 41.2°F5.1°C 33.5°F0.8°C 74% Calm Calm -- 29.93 in1013.5 mb - 0.00 in0.0 mm 0.02 in0.5 mm
08:55 PM 41.0°F5.0°C 33.7°F0.9°C 75% Calm Calm -- 29.94 in1013.9 mb - 0.00 in0.0 mm 0.02 in0.5 mm
09:00 PM 40.5°F4.7°C 33.6°F0.9°C 76% Calm Calm -- 29.94 in1013.9 mb - 0.00 in0.0 mm 0.02 in0.5 mm
09:10 PM 39.4°F4.1°C 33.5°F0.8°C 79% Calm Calm -- 29.93 in1013.5 mb - 0.00 in0.0 mm 0.02 in0.5 mm
09:15 PM 39.8°F4.3°C 33.8°F1.0°C 79% Calm Calm -- 29.93 in1013.5 mb - 0.00 in0.0 mm 0.02 in0.5 mm
09:20 PM 39.9°F4.4°C 34.0°F1.1°C 79% Calm Calm -- 29.93 in1013.5 mb - 0.00 in0.0 mm 0.02 in0.5 mm
09:25 PM 39.9°F4.4°C 33.9°F1.1°C 79% Calm Calm -- 29.93 in1013.5 mb - 0.00 in0.0 mm 0.02 in0.5 mm
09:30 PM 39.3°F4.1°C 33.3°F0.7°C 79% Calm Calm -- 29.93 in1013.5 mb - 0.00 in0.0 mm 0.02 in0.5 mm
09:35 PM 39.3°F4.1°C 33.7°F0.9°C 80% Calm Calm -- 29.93 in1013.5 mb - 0.00 in0.0 mm 0.02 in0.5 mm
09:40 PM 39.1°F3.9°C 33.5°F0.8°C 80% Calm Calm -- 29.93 in1013.5 mb - 0.00 in0.0 mm 0.02 in0.5 mm
09:45 PM 38.1°F3.4°C 32.8°F0.4°C 81% Calm Calm -- 29.93 in1013.5 mb - 0.00 in0.0 mm 0.02 in0.5 mm
09:50 PM 38.1°F3.4°C 33.4°F0.8°C 83% Calm Calm -- 29.93 in1013.5 mb - 0.00 in0.0 mm 0.02 in0.5 mm
09:55 PM 38.3°F3.5°C 33.6°F0.9°C 83% Calm Calm -- 29.93 in1013.5 mb - 0.00 in0.0 mm 0.02 in0.5 mm
10:00 PM 38.6°F3.7°C 33.8°F1.0°C 83% Calm Calm -- 29.93 in1013.5 mb - 0.00 in0.0 mm 0.02 in0.5 mm
10:10 PM 38.9°F3.8°C 33.9°F1.1°C 82% Calm Calm -- 29.93 in1013.5 mb - 0.00 in0.0 mm 0.02 in0.5 mm
10:15 PM 39.2°F4.0°C 33.9°F1.1°C 81% Calm Calm -- 29.93 in1013.5 mb - 0.00 in0.0 mm 0.02 in0.5 mm
10:20 PM 39.6°F4.2°C 34.5°F1.4°C 82% Calm Calm -- 29.92 in1013.2 mb - 0.00 in0.0 mm 0.02 in0.5 mm
10:25 PM 39.6°F4.2°C 34.6°F1.4°C 82% Calm Calm -- 29.93 in1013.5 mb - 0.00 in0.0 mm 0.02 in0.5 mm
10:30 PM 39.8°F4.3°C 34.5°F1.4°C 81% Calm Calm -- 29.93 in1013.5 mb - 0.00 in0.0 mm 0.02 in0.5 mm
10:35 PM 40.0°F4.4°C 34.3°F1.3°C 80% Calm Calm -- 29.93 in1013.5 mb - 0.00 in0.0 mm 0.02 in0.5 mm
10:40 PM 39.8°F4.3°C 34.4°F1.3°C 81% 1.2 mph WSW1.9 kmh WSW 2.3 mph3.7 kmh 29.92 in1013.2 mb - 0.00 in0.0 mm 0.02 in0.5 mm
10:45 PM 40.2°F4.6°C 33.9°F1.1°C 78% 1.2 mph S1.9 kmh S 2.3 mph3.7 kmh 29.92 in1013.2 mb - 0.00 in0.0 mm 0.02 in0.5 mm
10:50 PM 40.3°F4.6°C 34.3°F1.3°C 79% 2.3 mph S3.7 kmh S 3.5 mph5.6 kmh 29.93 in1013.5 mb - 0.00 in0.0 mm 0.02 in0.5 mm
10:55 PM 40.8°F4.9°C 34.5°F1.4°C 78% 3.5 mph S5.6 kmh S 5.8 mph9.3 kmh 29.92 in1013.2 mb - 0.00 in0.0 mm 0.02 in0.5 mm
11:00 PM 41.0°F5.0°C 35.0°F1.7°C 79% 3.5 mph SSW5.6 kmh SSW 4.6 mph7.4 kmh 29.92 in1013.2 mb - 0.00 in0.0 mm 0.33 in8.4 mm
11:10 PM 41.0°F5.0°C 35.0°F1.7°C 79% 2.3 mph S3.7 kmh S 2.3 mph3.7 kmh 29.92 in1013.2 mb - 0.00 in0.0 mm 0.33 in8.4 mm
11:15 PM 40.9°F4.9°C 35.2°F1.8°C 80% Calm Calm -- 29.92 in1013.2 mb - 0.00 in0.0 mm 0.33 in8.4 mm
11:20 PM 40.9°F4.9°C 35.2°F1.8°C 80% Calm Calm -- 29.92 in1013.2 mb - 0.00 in0.0 mm 0.33 in8.4 mm
11:25 PM 40.9°F4.9°C 35.5°F1.9°C 81% Calm Calm -- 29.91 in1012.9 mb - 0.00 in0.0 mm 0.33 in8.4 mm
11:30 PM 40.6°F4.8°C 35.8°F2.1°C 83% Calm Calm -- 29.91 in1012.9 mb - 0.01 in0.3 mm 0.01 in0.3 mm
11:35 PM 40.7°F4.8°C 36.0°F2.2°C 83% Calm Calm -- 29.91 in1012.9 mb - 0.01 in0.3 mm 0.01 in0.3 mm
11:40 PM 40.8°F4.9°C 36.0°F2.2°C 83% Calm Calm -- 29.91 in1012.9 mb - 0.01 in0.3 mm 0.01 in0.3 mm
11:45 PM 40.7°F4.8°C 36.0°F2.2°C 83% Calm Calm -- 29.91 in1012.9 mb - 0.01 in0.3 mm 0.01 in0.3 mm
11:50 PM 40.7°F4.8°C 36.2°F2.3°C 84% Calm Calm -- 29.91 in1012.9 mb - 0.01 in0.3 mm 0.01 in0.3 mm
11:55 PM 40.6°F4.8°C 36.5°F2.5°C 85% Calm Calm -- 29.90 in1012.5 mb - 0.01 in0.3 mm 0.01 in0.3 mm